createdAt,value
2019-03-27T00:00:12.271Z,65.66
2019-03-27T00:02:41.025Z,64.02
2019-03-27T00:05:09.727Z,73.00
2019-03-27T00:07:38.445Z,63.69
2019-03-27T00:10:08.356Z,72.39
2019-03-27T00:12:37.229Z,64.93
2019-03-27T00:15:13.341Z,76.19
2019-03-27T00:17:38.941Z,65.29
2019-03-27T00:20:08.043Z,65.09
2019-03-27T00:22:36.821Z,63.76
2019-03-27T00:25:05.909Z,74.68
2019-03-27T00:27:34.531Z,68.43
2019-03-27T00:30:03.243Z,63.72
2019-03-27T00:32:31.948Z,63.60
2019-03-27T00:35:00.640Z,63.31
2019-03-27T00:37:29.407Z,63.79
2019-03-27T00:39:58.130Z,64.42
2019-03-27T00:42:26.790Z,63.10
2019-03-27T00:44:55.522Z,62.74
2019-03-27T00:47:24.182Z,66.40
2019-03-27T00:49:52.924Z,65.13
2019-03-27T00:52:21.647Z,72.68
2019-03-27T00:54:50.358Z,65.94
2019-03-27T00:57:19.097Z,63.32
2019-03-27T00:59:47.786Z,63.76
2019-03-27T01:02:16.604Z,63.24
2019-03-27T01:04:45.338Z,62.84
2019-03-27T01:07:14.027Z,62.72
2019-03-27T01:09:42.725Z,67.00
2019-03-27T01:12:11.447Z,77.45
2019-03-27T01:14:40.167Z,67.79
2019-03-27T01:17:08.878Z,72.76
2019-03-27T01:19:37.617Z,68.75
2019-03-27T01:22:06.349Z,65.05
2019-03-27T01:24:35.081Z,64.02
2019-03-27T01:27:03.765Z,65.02
2019-03-27T01:57:37.714Z,67.52
2019-03-27T02:00:08.790Z,73.62
2019-03-27T02:02:37.603Z,72.06
2019-03-27T02:05:06.400Z,71.17
2019-03-27T02:07:35.099Z,75.88
2019-03-27T02:10:03.985Z,65.72
2019-03-27T02:12:32.776Z,64.15
2019-03-27T02:35:38.814Z,79.39
2019-03-27T02:38:07.503Z,69.74
2019-03-27T02:40:36.217Z,74.39
2019-03-27T02:43:04.930Z,79.74
2019-03-27T02:45:33.682Z,78.84
2019-03-27T02:48:02.356Z,65.06
2019-03-27T02:50:31.010Z,75.39
2019-03-27T02:52:59.718Z,79.76
2019-03-27T02:55:28.445Z,66.50
2019-03-27T02:57:57.319Z,68.34
2019-03-27T03:00:26.046Z,71.97
2019-03-27T03:02:54.793Z,74.03
2019-03-27T03:05:23.457Z,63.89
2019-03-27T03:07:52.118Z,67.56
2019-03-27T03:10:21.161Z,77.61
2019-03-27T03:12:49.855Z,66.05
2019-03-27T03:15:24.318Z,64.73
2019-03-27T03:17:53.029Z,68.50
2019-03-27T03:20:21.707Z,67.51
2019-03-27T03:22:50.396Z,79.30
2019-03-27T03:25:19.095Z,80.07
2019-03-27T03:27:47.833Z,66.92
2019-03-27T03:30:16.520Z,64.36
2019-03-27T03:32:46.296Z,63.57
2019-03-27T03:35:15.037Z,62.33
2019-03-27T03:37:43.814Z,62.77
2019-03-27T03:40:14.277Z,62.54
2019-03-27T03:42:42.940Z,73.53
2019-03-27T03:45:11.747Z,62.99
2019-03-27T03:47:40.468Z,77.03
2019-03-27T03:50:14.345Z,72.32
2019-03-27T03:52:45.871Z,71.71
2019-03-27T03:55:13.495Z,66.49
2019-03-27T03:57:44.219Z,65.21
2019-03-27T04:00:13.078Z,72.54
2019-03-27T04:02:41.834Z,73.62
2019-03-27T04:05:13.437Z,65.11
2019-03-27T04:07:42.293Z,63.77
2019-03-27T04:10:11.342Z,73.45
2019-03-27T04:12:40.009Z,63.65
2019-03-27T04:15:08.864Z,63.37
2019-03-27T04:17:37.614Z,67.01
2019-03-27T04:20:07.322Z,63.35
2019-03-27T04:22:36.096Z,63.06
2019-03-27T04:25:04.993Z,77.65
2019-03-27T04:27:33.748Z,79.71
2019-03-27T04:30:02.502Z,66.56
2019-03-27T04:32:31.187Z,63.86
2019-03-27T04:34:59.911Z,63.34
2019-03-27T04:37:28.590Z,62.48
2019-03-27T04:39:57.363Z,75.62
2019-03-27T04:42:28.193Z,79.10
2019-03-27T04:44:57.019Z,81.28
2019-03-27T04:47:31.969Z,82.66
2019-03-27T04:49:56.106Z,75.09
2019-03-27T04:52:24.744Z,78.77
2019-03-27T04:54:53.466Z,66.01
2019-03-27T04:57:22.190Z,76.82
2019-03-27T04:59:50.820Z,73.24
2019-03-27T05:02:19.554Z,63.44
2019-03-27T05:04:53.236Z,79.46
2019-03-27T05:07:21.993Z,77.24
2019-03-27T05:09:50.842Z,63.83
2019-03-27T05:12:21.578Z,80.84
2019-03-27T05:14:50.256Z,82.30
2019-03-27T05:17:18.971Z,74.23
2019-03-27T05:19:47.745Z,79.36
2019-03-27T05:22:16.448Z,81.87
2019-03-27T05:24:45.136Z,83.02
2019-03-27T05:27:13.818Z,70.88
2019-03-27T05:29:42.545Z,82.44
2019-03-27T05:32:11.297Z,83.34
2019-03-27T05:34:40.127Z,71.02
2019-03-27T05:37:09.147Z,80.61
2019-03-27T05:39:37.877Z,80.18
2019-03-27T05:42:06.687Z,82.02
2019-03-27T05:44:35.390Z,82.89
2019-03-27T05:47:04.079Z,83.39
2019-03-27T05:49:32.777Z,84.25
2019-03-27T05:52:01.535Z,84.39
2019-03-27T05:54:30.236Z,84.43
2019-03-27T05:56:59.033Z,84.56
2019-03-27T05:59:27.834Z,84.67
2019-03-27T06:01:56.657Z,84.74
2019-03-27T06:04:25.392Z,84.76
2019-03-27T06:06:54.147Z,84.75
2019-03-27T06:09:22.778Z,84.65
2019-03-27T06:11:51.754Z,84.66
2019-03-27T06:14:20.619Z,84.25
2019-03-27T06:16:49.382Z,83.32
2019-03-27T06:19:18.112Z,83.66
2019-03-27T06:21:46.850Z,83.77
2019-03-27T06:24:15.510Z,83.83
2019-03-27T06:26:44.268Z,84.02
2019-03-27T06:29:15.732Z,83.83
2019-03-27T06:31:43.396Z,83.84
2019-03-27T06:34:12.118Z,83.65
2019-03-27T06:36:40.764Z,83.73
2019-03-27T06:39:09.558Z,83.75
2019-03-27T06:41:38.289Z,83.60
2019-03-27T06:44:07.109Z,82.86
2019-03-27T06:46:35.905Z,80.09
2019-03-27T06:49:04.657Z,82.78
2019-03-27T06:51:40.111Z,82.89
2019-03-27T06:54:03.713Z,68.93
2019-03-27T06:56:32.425Z,75.86
2019-03-27T06:59:01.192Z,81.09
2019-03-27T07:01:29.927Z,81.51
2019-03-27T07:04:09.792Z,82.00
2019-03-27T07:06:29.179Z,81.93
2019-03-27T07:08:57.945Z,81.83
2019-03-27T07:11:26.707Z,81.15
2019-03-27T07:13:55.411Z,78.17
2019-03-27T07:16:24.110Z,77.01
2019-03-27T07:18:52.905Z,78.59
2019-03-27T07:21:21.606Z,77.55
2019-03-27T07:23:50.380Z,77.05
2019-03-27T07:26:19.148Z,77.85
2019-03-27T07:28:47.916Z,75.62
2019-03-27T07:31:16.615Z,78.28
2019-03-27T07:33:47.726Z,76.14
2019-03-27T07:36:16.390Z,76.87
2019-03-27T07:38:45.202Z,75.25
2019-03-27T07:41:13.879Z,76.37
2019-03-27T07:43:42.636Z,75.44
2019-03-27T07:46:11.410Z,72.70
2019-03-27T07:48:52.896Z,75.79
2019-03-27T07:51:10.550Z,75.68
2019-03-27T07:53:39.368Z,71.38
2019-03-27T07:56:08.088Z,76.58
2019-03-27T07:58:36.749Z,74.83
2019-03-27T08:01:05.476Z,72.02
2019-03-27T08:03:34.235Z,70.39
2019-03-27T08:06:02.953Z,74.29
2019-03-27T08:08:31.662Z,75.24
2019-03-27T08:11:00.421Z,75.37
2019-03-27T08:13:29.137Z,74.01
2019-03-27T08:15:57.893Z,73.76
2019-03-27T08:18:26.633Z,73.28
2019-03-27T08:20:55.298Z,72.68
2019-03-27T08:23:24.051Z,73.97
2019-03-27T08:25:52.741Z,72.49
2019-03-27T08:28:21.514Z,72.40
2019-03-27T08:30:50.174Z,72.15
2019-03-27T08:33:18.863Z,71.53
2019-03-27T08:35:47.628Z,71.19
2019-03-27T08:38:16.324Z,71.42
2019-03-27T08:40:45.032Z,70.72
2019-03-27T08:43:21.099Z,71.47
2019-03-27T08:45:44.219Z,72.50
2019-03-27T08:48:12.986Z,68.75
2019-03-27T08:50:41.798Z,69.84
2019-03-27T08:53:10.563Z,68.95
2019-03-27T08:55:39.398Z,69.55
2019-03-27T08:58:08.119Z,68.25
2019-03-27T09:00:55.640Z,69.68
2019-03-27T09:03:24.300Z,68.22
2019-03-27T09:05:53.064Z,68.64
2019-03-27T09:08:21.971Z,69.14
2019-03-27T09:10:50.727Z,68.16
2019-03-27T09:13:19.505Z,66.29
2019-03-27T09:15:48.213Z,68.26
2019-03-27T09:18:17.149Z,66.60
2019-03-27T09:20:45.944Z,67.24
2019-03-27T09:23:14.683Z,64.72
2019-03-27T09:25:43.423Z,64.53
2019-03-27T09:28:12.159Z,66.89
2019-03-27T09:30:40.823Z,65.90
2019-03-27T09:33:09.567Z,63.03
2019-03-27T09:35:38.761Z,64.53
2019-03-27T09:38:07.497Z,61.19
2019-03-27T09:40:36.185Z,64.23
2019-03-27T09:43:04.947Z,63.58
2019-03-27T09:45:33.610Z,63.64
2019-03-27T09:48:02.422Z,57.89
2019-03-27T09:50:31.137Z,65.11
2019-03-27T09:53:00.019Z,59.09
2019-03-27T09:55:28.834Z,62.89
2019-03-27T09:57:57.601Z,58.29
2019-03-27T10:00:53.627Z,58.66
2019-03-27T10:03:22.435Z,59.86
2019-03-27T10:05:51.201Z,59.61
2019-03-27T10:08:20.017Z,60.47
2019-03-27T10:10:48.769Z,61.45
2019-03-27T10:13:17.432Z,56.35
2019-03-27T10:15:46.212Z,59.44
2019-03-27T10:18:14.964Z,55.05
2019-03-27T10:20:43.703Z,61.44
2019-03-27T10:23:12.436Z,55.96
2019-03-27T10:25:41.214Z,58.37
2019-03-27T10:28:09.958Z,55.12
2019-03-27T10:30:38.789Z,52.96
2019-03-27T10:33:07.511Z,62.17
2019-03-27T10:35:36.240Z,56.87
2019-03-27T10:38:05.641Z,65.29
2019-03-27T10:40:34.479Z,54.21
2019-03-27T10:43:03.214Z,55.75
2019-03-27T10:45:31.883Z,58.54
2019-03-27T10:48:00.549Z,55.93
2019-03-27T10:50:29.271Z,58.38
2019-03-27T10:52:58.027Z,50.58
2019-03-27T10:55:26.773Z,61.29
2019-03-27T10:57:55.515Z,61.06
2019-03-27T11:00:24.224Z,51.15
2019-03-27T11:02:53.271Z,55.85
2019-03-27T11:05:22.014Z,58.37
2019-03-27T11:07:50.714Z,63.79
2019-03-27T11:10:19.472Z,53.93
2019-03-27T11:12:48.166Z,52.09
2019-03-27T11:15:17.495Z,49.19
2019-03-27T11:17:46.196Z,61.19
2019-03-27T11:20:35.068Z,57.22
2019-03-27T11:23:03.844Z,57.31
2019-03-27T11:25:33.355Z,52.34
2019-03-27T11:28:02.139Z,51.25
2019-03-27T11:30:49.728Z,51.08
2019-03-27T11:33:18.477Z,52.40
2019-03-27T11:35:47.163Z,53.14
2019-03-27T11:38:15.915Z,54.86
2019-03-27T11:40:44.618Z,50.09
2019-03-27T11:43:13.357Z,54.70
2019-03-27T11:45:42.161Z,48.66
2019-03-27T11:48:10.807Z,49.86
2019-03-27T11:50:45.170Z,57.02
2019-03-27T11:53:08.723Z,49.65
2019-03-27T11:55:37.447Z,61.18
2019-03-27T11:58:06.283Z,48.84
2019-03-27T12:00:34.997Z,47.69
2019-03-27T12:03:03.734Z,46.65
2019-03-27T12:05:32.455Z,48.78
2019-03-27T12:08:01.158Z,52.03
2019-03-27T12:10:29.898Z,59.08
2019-03-27T12:12:58.663Z,56.86
2019-03-27T12:15:39.161Z,44.90
2019-03-27T12:18:08.257Z,54.96
2019-03-27T12:20:37.279Z,53.60
2019-03-27T12:23:05.983Z,44.46
2019-03-27T12:25:34.733Z,58.80
2019-03-27T12:28:03.494Z,41.92
2019-03-27T12:30:32.288Z,53.82
2019-03-27T12:33:01.891Z,45.68
2019-03-27T12:35:30.642Z,43.82
2019-03-27T12:37:59.431Z,58.56
2019-03-27T12:40:28.156Z,61.27
2019-03-27T12:42:56.926Z,57.23
2019-03-27T12:45:25.634Z,55.89
2019-03-27T12:47:54.380Z,58.16
2019-03-27T12:50:23.120Z,45.22
2019-03-27T12:52:51.918Z,61.66
2019-03-27T12:55:20.663Z,47.57
2019-03-27T12:57:49.926Z,53.58
2019-03-27T13:00:18.835Z,52.90
2019-03-27T13:02:47.565Z,44.83
2019-03-27T13:05:16.496Z,43.66
2019-03-27T13:07:50.095Z,45.83
2019-03-27T13:10:14.680Z,52.73
2019-03-27T13:12:43.330Z,49.91
2019-03-27T13:15:12.172Z,45.69
2019-03-27T13:17:40.891Z,53.01
2019-03-27T13:20:10.219Z,46.01
2019-03-27T13:22:39.570Z,47.03
2019-03-27T13:25:09.440Z,45.71
2019-03-27T13:27:38.213Z,42.79
2019-03-27T13:30:07.216Z,46.88
2019-03-27T13:32:36.321Z,46.88
2019-03-27T13:35:05.387Z,46.45
2019-03-27T13:37:34.291Z,58.74
2019-03-27T13:40:03.033Z,47.02
2019-03-27T13:42:31.881Z,57.36
2019-03-27T13:45:00.724Z,49.75
2019-03-27T13:47:29.654Z,47.23
2019-03-27T13:49:58.713Z,50.65
2019-03-27T13:52:27.466Z,41.72
2019-03-27T13:54:56.344Z,44.55
2019-03-27T13:57:25.099Z,43.41
2019-03-27T13:59:54.330Z,55.70
2019-03-27T14:02:23.113Z,43.77
2019-03-27T14:04:51.922Z,55.97
2019-03-27T14:07:20.740Z,48.34
2019-03-27T14:09:49.774Z,46.21
2019-03-27T14:12:21.259Z,42.81
2019-03-27T14:14:50.853Z,49.71
2019-03-27T14:17:19.536Z,50.23
2019-03-27T14:19:48.244Z,49.35
2019-03-27T14:22:17.409Z,56.66
2019-03-27T14:24:46.214Z,47.33
2019-03-27T14:27:15.058Z,58.33
2019-03-27T14:29:43.864Z,47.29
2019-03-27T14:32:12.802Z,50.07
2019-03-27T14:34:41.555Z,51.26
2019-03-27T14:37:10.321Z,47.07
2019-03-27T14:39:39.131Z,56.31
2019-03-27T14:42:07.847Z,44.39
2019-03-27T14:44:36.560Z,53.80
2019-03-27T14:47:05.395Z,46.71
2019-03-27T14:49:37.477Z,55.18
2019-03-27T14:52:08.581Z,56.93
2019-03-27T14:54:35.385Z,46.42
2019-03-27T14:57:04.045Z,44.62
2019-03-27T14:59:32.963Z,46.21
2019-03-27T15:02:01.793Z,52.55
2019-03-27T15:04:30.948Z,53.73
2019-03-27T15:06:59.714Z,56.81
2019-03-27T15:09:28.479Z,56.43
2019-03-27T15:11:57.338Z,54.13
2019-03-27T15:14:26.085Z,43.80
2019-03-27T15:16:54.808Z,49.30
2019-03-27T15:19:23.537Z,44.91
2019-03-27T15:21:52.343Z,46.00
2019-03-27T15:24:21.205Z,46.06
2019-03-27T15:26:51.266Z,48.23
2019-03-27T15:29:20.202Z,46.71
2019-03-27T15:31:49.071Z,45.96
2019-03-27T15:34:18.003Z,46.82
2019-03-27T15:36:46.822Z,55.82
2019-03-27T15:39:15.863Z,49.54
2019-03-27T15:41:44.699Z,47.05
2019-03-27T15:44:13.797Z,49.06
2019-03-27T15:46:42.801Z,50.72
2019-03-27T15:49:11.723Z,48.94
2019-03-27T15:51:40.533Z,50.24
2019-03-27T15:54:09.251Z,49.40
2019-03-27T15:56:38.582Z,47.28
2019-03-27T15:59:07.576Z,47.14
2019-03-27T16:01:36.324Z,45.08
2019-03-27T16:04:05.070Z,48.26
2019-03-27T16:06:33.934Z,46.53
2019-03-27T16:09:02.882Z,47.14
2019-03-27T16:11:31.602Z,58.36
2019-03-27T16:14:00.431Z,55.62
2019-03-27T16:16:29.315Z,57.65
2019-03-27T16:18:59.074Z,56.22
2019-03-27T16:21:27.904Z,45.02
2019-03-27T16:24:06.313Z,45.24
2019-03-27T16:26:27.116Z,55.50
2019-03-27T16:28:55.876Z,56.70
2019-03-27T16:31:24.756Z,55.18
2019-03-27T16:33:53.825Z,48.46
2019-03-27T16:36:23.063Z,54.02
2019-03-27T16:38:52.037Z,56.98
2019-03-27T16:41:20.755Z,50.39
2019-03-27T16:43:49.775Z,57.26
2019-03-27T16:46:18.565Z,58.93
2019-03-27T16:48:49.362Z,57.42
2019-03-27T16:51:18.285Z,51.24
2019-03-27T16:53:47.074Z,54.06
2019-03-27T16:56:15.925Z,47.84
2019-03-27T16:58:45.024Z,49.97
2019-03-27T17:01:14.549Z,56.94
2019-03-27T17:03:43.246Z,52.54
2019-03-27T17:06:12.087Z,49.20
2019-03-27T17:08:44.293Z,50.28
2019-03-27T17:11:13.014Z,57.17
2019-03-27T17:13:41.881Z,51.81
2019-03-27T17:16:10.675Z,52.35
2019-03-27T17:18:39.395Z,58.38
2019-03-27T17:21:08.189Z,56.30
2019-03-27T17:23:37.013Z,54.70
2019-03-27T17:26:05.808Z,52.32
2019-03-27T17:28:34.756Z,52.72
2019-03-27T17:31:03.507Z,53.51
2019-03-27T17:33:32.222Z,52.77
2019-03-27T17:36:01.253Z,51.98
2019-03-27T17:38:30.417Z,55.08
2019-03-27T17:40:59.520Z,53.97
2019-03-27T17:43:28.355Z,56.58
2019-03-27T17:45:57.209Z,58.64
2019-03-27T17:48:26.080Z,55.86
2019-03-27T17:50:54.868Z,56.23
2019-03-27T17:53:31.481Z,56.71
2019-03-27T17:55:56.082Z,56.38
2019-03-27T17:58:25.161Z,56.96
2019-03-27T18:00:56.381Z,57.22
2019-03-27T18:03:25.431Z,56.32
2019-03-27T18:05:54.774Z,54.47
2019-03-27T18:08:23.609Z,56.20
2019-03-27T18:10:52.523Z,57.32
2019-03-27T18:13:21.343Z,57.01
2019-03-27T18:15:50.519Z,55.76
2019-03-27T18:18:19.469Z,54.11
2019-03-27T18:20:48.471Z,54.60
2019-03-27T18:23:17.361Z,54.78
2019-03-27T18:25:46.520Z,54.04
2019-03-27T18:28:15.857Z,55.12
2019-03-27T18:30:44.912Z,54.17
2019-03-27T18:33:14.262Z,54.42
2019-03-27T18:35:43.213Z,54.28
2019-03-27T18:38:12.153Z,54.49
2019-03-27T18:40:41.856Z,54.47
2019-03-27T18:43:11.069Z,54.47
2019-03-27T18:45:40.436Z,54.60
2019-03-27T18:48:10.385Z,54.39
2019-03-27T18:50:39.822Z,54.19
2019-03-27T18:53:09.569Z,54.19
2019-03-27T18:55:39.451Z,54.49
2019-03-27T18:58:08.871Z,54.60
2019-03-27T19:00:38.658Z,54.75
2019-03-27T19:03:07.773Z,55.18
2019-03-27T19:05:37.339Z,54.76
2019-03-27T19:08:06.746Z,54.97
2019-03-27T19:10:36.174Z,54.94
2019-03-27T19:13:05.655Z,55.13
2019-03-27T19:15:35.093Z,54.75
2019-03-27T19:18:05.599Z,54.70
2019-03-27T19:20:35.986Z,54.67
2019-03-27T19:23:05.650Z,54.90
2019-03-27T19:25:35.239Z,55.05
2019-03-27T19:28:05.397Z,54.76
2019-03-27T19:30:35.109Z,55.02
2019-03-27T19:33:04.951Z,55.80
2019-03-27T19:35:35.388Z,54.98
2019-03-27T19:38:03.723Z,54.98
2019-03-27T19:40:33.848Z,54.83
2019-03-27T19:43:03.425Z,54.85
2019-03-27T19:45:33.510Z,55.37
2019-03-27T19:48:03.509Z,54.92
2019-03-27T19:50:33.861Z,55.32
2019-03-27T19:53:02.611Z,54.97
2019-03-27T19:55:32.855Z,55.10
2019-03-27T19:58:03.070Z,55.13
2019-03-27T20:00:33.452Z,54.94
2019-03-27T20:03:02.162Z,54.92
2019-03-27T20:05:32.619Z,55.00
2019-03-27T20:08:01.248Z,55.09
2019-03-27T20:10:31.160Z,55.57
2019-03-27T20:13:01.990Z,55.14
2019-03-27T20:15:32.297Z,55.89
2019-03-27T20:18:03.367Z,55.32
2019-03-27T20:20:33.177Z,56.10
2019-03-27T20:23:14.382Z,56.48
2019-03-27T20:25:34.243Z,55.98
2019-03-27T20:28:04.151Z,55.31
2019-03-27T20:30:34.293Z,54.95
2019-03-27T20:33:04.996Z,55.62
2019-03-27T20:35:35.043Z,57.79
2019-03-27T20:38:06.870Z,57.00
2019-03-27T20:40:39.517Z,56.86
2019-03-27T20:43:09.649Z,55.64
2019-03-27T20:45:40.215Z,55.33
2019-03-27T20:48:10.161Z,56.03
2019-03-27T20:50:40.504Z,56.41
2019-03-27T20:53:09.834Z,56.42
2019-03-27T20:55:39.743Z,56.03
2019-03-27T20:58:09.646Z,56.35
2019-03-27T21:00:39.166Z,55.74
2019-03-27T21:03:08.493Z,62.69
2019-03-27T21:05:37.897Z,60.94
2019-03-27T21:08:06.903Z,61.46
2019-03-27T21:10:36.312Z,62.07
2019-03-27T21:13:05.819Z,59.62
2019-03-27T21:15:38.369Z,59.79
2019-03-27T21:18:05.994Z,62.15
2019-03-27T21:20:35.747Z,59.97
2019-03-27T21:23:06.155Z,60.60
2019-03-27T21:25:35.318Z,61.38
2019-03-27T21:28:05.156Z,60.31
2019-03-27T21:30:34.338Z,61.21
2019-03-27T21:33:03.512Z,61.26
2019-03-27T21:35:32.802Z,61.42
2019-03-27T21:38:01.941Z,61.50
2019-03-27T21:40:31.022Z,59.16
2019-03-27T21:43:00.260Z,57.73
2019-03-27T21:45:32.135Z,63.57
2019-03-27T21:48:00.283Z,57.57
2019-03-27T21:50:29.268Z,63.53
2019-03-27T21:53:00.808Z,65.03
2019-03-27T21:55:41.860Z,63.17
2019-03-27T21:57:59.253Z,62.12
2019-03-27T22:00:38.730Z,60.12
2019-03-27T22:03:07.812Z,63.37
2019-03-27T22:05:36.735Z,62.67
2019-03-27T22:08:05.626Z,63.78
2019-03-27T22:10:34.649Z,61.50
2019-03-27T22:13:03.557Z,64.43
2019-03-27T22:15:32.365Z,65.33
2019-03-27T22:18:01.238Z,65.81
2019-03-27T22:20:29.957Z,60.19
2019-03-27T22:22:58.697Z,58.42
2019-03-27T22:25:35.732Z,57.87
2019-03-27T22:27:56.681Z,56.91
2019-03-27T22:30:25.390Z,57.25
2019-03-27T22:32:54.286Z,64.66
2019-03-27T22:35:23.062Z,64.17
2019-03-27T22:37:51.814Z,64.91
2019-03-27T22:40:20.568Z,68.21
2019-03-27T22:42:49.545Z,61.27
2019-03-27T22:45:18.302Z,68.61
2019-03-27T22:47:47.078Z,62.52
2019-03-27T22:50:15.827Z,61.96
2019-03-27T22:52:44.598Z,62.34
2019-03-27T22:55:13.410Z,59.72
2019-03-27T22:57:42.248Z,67.58
2019-03-27T23:00:14.922Z,65.62
2019-03-27T23:02:43.696Z,63.46
2019-03-27T23:05:12.420Z,68.40
2019-03-27T23:07:41.108Z,71.62
2019-03-27T23:10:09.945Z,62.70
2019-03-27T23:12:38.686Z,72.11
2019-03-27T23:15:08.283Z,71.07
2019-03-27T23:17:37.063Z,71.86
2019-03-27T23:20:07.263Z,72.22
2019-03-27T23:22:36.031Z,66.62
2019-03-27T23:25:04.907Z,68.67
2019-03-27T23:27:33.633Z,66.89
2019-03-27T23:30:02.353Z,65.22
2019-03-27T23:32:31.069Z,61.50
2019-03-27T23:34:59.814Z,71.09
2019-03-27T23:37:28.583Z,73.57
2019-03-27T23:39:57.301Z,60.55
2019-03-27T23:42:26.049Z,64.55
2019-03-27T23:44:54.744Z,72.49
2019-03-27T23:47:23.815Z,71.32
2019-03-27T23:49:52.482Z,62.08
2019-03-27T23:52:21.182Z,60.94
2019-03-27T23:54:49.978Z,73.27
2019-03-27T23:57:18.709Z,73.57
2019-03-27T23:59:47.446Z,75.13
